createdAt,value
2022-12-31T00:01:05.598Z,11.36
2022-12-31T00:03:34.009Z,12.69
2022-12-31T00:06:02.697Z,13.27
2022-12-31T00:08:30.489Z,12.71
2022-12-31T00:10:58.412Z,11.99
2022-12-31T00:13:26.152Z,11.44
2022-12-31T00:15:53.919Z,11.03
2022-12-31T00:18:21.655Z,10.75
2022-12-31T00:20:49.355Z,10.51
2022-12-31T00:23:17.101Z,10.31
2022-12-31T00:25:44.885Z,10.14
2022-12-31T00:28:12.680Z,9.98
2022-12-31T00:30:40.645Z,9.83
2022-12-31T00:33:08.356Z,9.72
2022-12-31T00:35:36.565Z,9.94
2022-12-31T00:38:04.444Z,11.40
2022-12-31T00:40:32.169Z,12.76
2022-12-31T00:42:59.926Z,13.36
2022-12-31T00:45:27.680Z,12.78
2022-12-31T00:47:55.587Z,12.08
2022-12-31T00:50:23.437Z,11.55
2022-12-31T00:52:51.206Z,11.16
2022-12-31T00:55:19.729Z,10.87
2022-12-31T00:57:47.470Z,10.63
2022-12-31T01:00:16.098Z,10.43
2022-12-31T01:02:44.045Z,10.26
2022-12-31T01:05:11.985Z,10.13
2022-12-31T01:07:39.753Z,10.03
2022-12-31T01:10:08.201Z,10.21
2022-12-31T01:12:36.058Z,11.54
2022-12-31T01:15:04.267Z,12.92
2022-12-31T01:17:32.055Z,13.55
2022-12-31T01:19:59.835Z,13.05
2022-12-31T01:22:27.626Z,12.36
2022-12-31T01:24:55.370Z,11.87
2022-12-31T01:27:23.068Z,11.50
2022-12-31T01:29:50.822Z,11.23
2022-12-31T01:32:18.514Z,11.02
2022-12-31T01:34:47.430Z,10.85
2022-12-31T01:37:15.176Z,10.74
2022-12-31T01:39:42.952Z,10.61
2022-12-31T01:42:11.886Z,10.83
2022-12-31T01:44:39.675Z,12.29
2022-12-31T01:47:15.020Z,13.57
2022-12-31T01:49:45.383Z,13.68
2022-12-31T01:52:42.860Z,13.01
2022-12-31T01:55:21.762Z,12.36
2022-12-31T01:57:52.099Z,11.97
2022-12-31T02:00:20.037Z,11.69
2022-12-31T02:02:47.919Z,11.48
2022-12-31T02:05:30.966Z,11.29
2022-12-31T02:07:58.992Z,11.14
2022-12-31T02:10:26.775Z,11.01
2022-12-31T02:12:54.761Z,10.91
2022-12-31T02:15:49.100Z,10.80
2022-12-31T02:18:38.524Z,11.16
2022-12-31T02:21:35.101Z,12.76
2022-12-31T02:24:22.248Z,14.10
2022-12-31T02:26:54.173Z,14.38
2022-12-31T02:29:48.498Z,13.63
2022-12-31T02:32:22.306Z,12.87
2022-12-31T02:35:01.096Z,12.38
2022-12-31T02:37:30.715Z,11.98
2022-12-31T02:39:59.123Z,11.68
2022-12-31T02:42:26.944Z,11.44
2022-12-31T02:44:54.733Z,11.24
2022-12-31T02:48:00.521Z,11.09
2022-12-31T02:50:57.022Z,10.92
2022-12-31T02:53:57.143Z,10.78
2022-12-31T02:56:35.316Z,10.66
2022-12-31T02:59:25.735Z,10.56
2022-12-31T03:02:14.283Z,10.47
2022-12-31T03:04:49.868Z,10.42
2022-12-31T03:07:23.965Z,10.76
2022-12-31T03:09:52.195Z,12.34
2022-12-31T03:12:48.020Z,13.62
2022-12-31T03:15:22.400Z,14.18
2022-12-31T03:18:08.320Z,13.56
2022-12-31T03:21:07.360Z,12.88
2022-12-31T03:23:40.684Z,12.36
2022-12-31T03:26:12.345Z,12.03
2022-12-31T03:28:41.980Z,11.77
2022-12-31T03:31:09.848Z,11.56
2022-12-31T03:33:39.857Z,11.39
2022-12-31T03:36:11.284Z,11.22
2022-12-31T03:38:39.761Z,11.06
2022-12-31T03:41:10.820Z,10.90
2022-12-31T03:43:38.640Z,10.75
2022-12-31T03:46:06.522Z,10.88
2022-12-31T03:48:34.424Z,12.20
2022-12-31T03:51:02.172Z,13.55
2022-12-31T03:53:30.306Z,14.13
2022-12-31T03:55:58.129Z,13.57
2022-12-31T03:58:25.972Z,12.88
2022-12-31T04:00:53.821Z,12.37
2022-12-31T04:03:21.866Z,11.99
2022-12-31T04:05:56.077Z,11.67
2022-12-31T04:08:24.778Z,11.40
2022-12-31T04:10:52.669Z,11.20
2022-12-31T04:13:20.454Z,11.01
2022-12-31T04:15:52.126Z,10.86
2022-12-31T04:18:19.918Z,10.72
2022-12-31T04:20:47.696Z,10.86
2022-12-31T04:23:15.536Z,12.17
2022-12-31T04:25:43.272Z,13.48
2022-12-31T04:28:12.192Z,14.05
2022-12-31T04:30:40.219Z,13.50
2022-12-31T04:33:08.045Z,12.84
2022-12-31T04:35:35.819Z,12.35
2022-12-31T04:38:04.132Z,12.01
2022-12-31T04:40:32.244Z,11.74
2022-12-31T04:42:59.993Z,11.49
2022-12-31T04:45:27.722Z,11.26
2022-12-31T04:47:55.436Z,11.04
2022-12-31T04:50:23.186Z,10.85
2022-12-31T04:52:50.925Z,10.93
2022-12-31T04:55:18.692Z,12.20
2022-12-31T04:57:46.413Z,13.35
2022-12-31T05:00:14.696Z,13.83
2022-12-31T05:02:42.606Z,13.33
2022-12-31T05:05:10.526Z,12.65
2022-12-31T05:07:38.358Z,12.09
2022-12-31T05:10:06.691Z,11.68
2022-12-31T05:12:34.455Z,11.35
2022-12-31T05:15:02.274Z,11.10
2022-12-31T05:17:30.463Z,11.15
2022-12-31T05:19:58.184Z,12.37
2022-12-31T05:22:28.959Z,13.66
2022-12-31T05:24:57.956Z,14.32
2022-12-31T05:27:26.091Z,13.74
2022-12-31T05:29:53.839Z,13.03
2022-12-31T05:32:21.616Z,12.50
2022-12-31T05:34:49.348Z,12.11
2022-12-31T05:37:17.100Z,11.81
2022-12-31T05:39:44.819Z,11.57
2022-12-31T05:42:12.543Z,11.36
2022-12-31T05:44:40.346Z,11.41
2022-12-31T05:47:08.154Z,12.62
2022-12-31T05:49:35.977Z,13.93
2022-12-31T05:52:04.120Z,14.54
2022-12-31T05:54:31.857Z,13.94
2022-12-31T05:56:59.802Z,13.26
2022-12-31T05:59:27.512Z,12.74
2022-12-31T06:01:55.578Z,12.37
2022-12-31T06:04:23.511Z,12.10
2022-12-31T06:06:51.255Z,11.88
2022-12-31T06:09:19.652Z,11.71
2022-12-31T06:11:47.628Z,11.55
2022-12-31T06:14:15.553Z,11.64
2022-12-31T06:16:43.359Z,12.84
2022-12-31T06:19:11.136Z,14.09
2022-12-31T06:21:39.038Z,14.79
2022-12-31T06:24:07.481Z,14.26
2022-12-31T06:26:35.394Z,13.52
2022-12-31T06:29:03.185Z,12.96
2022-12-31T06:31:30.978Z,12.53
2022-12-31T06:33:59.138Z,12.19
2022-12-31T06:36:27.184Z,12.26
2022-12-31T06:38:55.510Z,13.59
2022-12-31T06:41:23.263Z,14.78
2022-12-31T06:43:51.114Z,15.08
2022-12-31T06:46:19.010Z,14.33
2022-12-31T06:48:46.822Z,13.57
2022-12-31T06:51:20.549Z,13.00
2022-12-31T06:53:49.968Z,12.90
2022-12-31T06:56:33.072Z,14.07
2022-12-31T06:59:03.602Z,15.21
2022-12-31T07:01:40.376Z,15.65
2022-12-31T07:04:34.683Z,14.88
2022-12-31T07:07:26.823Z,13.97
2022-12-31T07:10:06.807Z,13.32
2022-12-31T07:12:40.416Z,13.41
2022-12-31T07:15:17.481Z,14.65
2022-12-31T07:18:04.836Z,15.30
2022-12-31T07:20:33.114Z,14.70
2022-12-31T07:23:01.651Z,13.97
2022-12-31T07:25:30.085Z,13.45
2022-12-31T07:28:15.997Z,13.84
2022-12-31T07:30:54.749Z,14.97
2022-12-31T07:33:39.023Z,15.69
2022-12-31T07:36:22.649Z,15.18
2022-12-31T07:38:55.284Z,14.36
2022-12-31T07:41:45.147Z,13.79
2022-12-31T07:44:51.192Z,13.35
2022-12-31T07:47:24.340Z,13.75
2022-12-31T07:49:53.716Z,14.97
2022-12-31T07:52:22.622Z,15.58
2022-12-31T07:54:50.517Z,15.19
2022-12-31T07:57:19.735Z,14.55
2022-12-31T07:59:56.607Z,13.98
2022-12-31T08:02:42.900Z,14.03
2022-12-31T08:05:35.830Z,15.30
2022-12-31T08:08:22.181Z,15.89
2022-12-31T08:11:05.091Z,15.22
2022-12-31T08:13:33.613Z,14.56
2022-12-31T08:16:02.843Z,14.13
2022-12-31T08:18:33.918Z,13.80
2022-12-31T08:21:35.254Z,13.91
2022-12-31T08:24:36.294Z,15.35
2022-12-31T08:27:12.853Z,16.16
2022-12-31T08:29:51.019Z,15.58
2022-12-31T08:32:33.703Z,14.94
2022-12-31T08:35:20.910Z,14.47
2022-12-31T08:38:06.292Z,14.08
2022-12-31T08:40:50.057Z,14.22
2022-12-31T08:43:40.412Z,15.55
2022-12-31T08:46:19.872Z,15.90
2022-12-31T08:48:48.618Z,15.42
2022-12-31T08:51:22.201Z,14.99
2022-12-31T08:53:50.941Z,14.67
2022-12-31T08:56:29.024Z,14.44
2022-12-31T08:59:28.008Z,14.28
2022-12-31T09:02:08.078Z,14.77
2022-12-31T09:05:02.475Z,16.13
2022-12-31T09:07:53.144Z,16.86
2022-12-31T09:10:35.227Z,16.17
2022-12-31T09:13:16.281Z,15.52
2022-12-31T09:15:49.493Z,15.09
2022-12-31T09:18:17.717Z,14.84
2022-12-31T09:20:45.672Z,14.70
2022-12-31T09:23:14.064Z,14.59
2022-12-31T09:25:49.680Z,14.51
2022-12-31T09:28:46.686Z,14.72
2022-12-31T09:31:33.863Z,16.17
2022-12-31T09:34:08.207Z,17.05
2022-12-31T09:36:43.798Z,16.65
2022-12-31T09:39:22.430Z,16.17
2022-12-31T09:42:23.731Z,15.84
2022-12-31T09:45:19.788Z,15.59
2022-12-31T09:47:47.489Z,15.46
2022-12-31T09:50:33.829Z,15.39
2022-12-31T09:53:19.167Z,15.31
2022-12-31T09:55:59.663Z,15.18
2022-12-31T09:58:57.468Z,15.09
2022-12-31T10:01:31.397Z,15.00
2022-12-31T10:04:08.455Z,15.15
2022-12-31T10:07:01.366Z,16.31
2022-12-31T10:09:42.943Z,16.76
2022-12-31T10:12:46.190Z,16.31
2022-12-31T10:15:34.119Z,15.86
2022-12-31T10:18:12.834Z,15.65
2022-12-31T10:21:00.291Z,15.51
2022-12-31T10:23:46.568Z,15.37
2022-12-31T10:26:31.435Z,15.28
2022-12-31T10:29:20.981Z,15.72
2022-12-31T10:32:03.762Z,16.87
2022-12-31T10:34:50.122Z,16.82
2022-12-31T10:37:29.970Z,16.38
2022-12-31T10:40:10.294Z,16.12
2022-12-31T10:43:15.917Z,16.00
2022-12-31T10:46:05.105Z,15.92
2022-12-31T10:49:08.352Z,15.90
2022-12-31T10:51:53.904Z,15.88
2022-12-31T10:54:24.539Z,15.88
2022-12-31T10:57:23.364Z,15.93
2022-12-31T11:00:00.523Z,16.00
2022-12-31T11:03:00.253Z,16.02
2022-12-31T11:05:47.015Z,16.03
2022-12-31T11:08:21.920Z,16.05
2022-12-31T11:11:26.653Z,16.13
2022-12-31T11:14:00.694Z,16.21
2022-12-31T11:16:37.684Z,16.18
2022-12-31T11:19:14.499Z,16.14
2022-12-31T11:21:59.132Z,16.13
2022-12-31T11:24:52.315Z,16.20
2022-12-31T11:27:46.116Z,16.31
2022-12-31T11:30:48.329Z,16.45
2022-12-31T11:33:46.818Z,16.60
2022-12-31T11:37:06.703Z,16.73
2022-12-31T11:39:52.112Z,16.88
2022-12-31T11:42:38.826Z,16.94
2022-12-31T11:45:31.632Z,17.03
2022-12-31T11:48:37.466Z,17.17
2022-12-31T11:51:24.235Z,17.33
2022-12-31T11:54:17.058Z,17.38
2022-12-31T11:56:50.591Z,17.42
2022-12-31T11:59:19.884Z,17.47
2022-12-31T12:01:56.125Z,17.54
2022-12-31T12:04:24.127Z,17.58
2022-12-31T12:06:52.526Z,17.62
2022-12-31T12:09:32.007Z,17.70
2022-12-31T12:12:04.809Z,17.75
2022-12-31T12:14:38.685Z,17.80
2022-12-31T12:17:14.967Z,17.89
2022-12-31T12:19:45.923Z,18.00
2022-12-31T12:22:21.336Z,18.04
2022-12-31T12:25:16.238Z,18.04
2022-12-31T12:27:44.094Z,18.06
2022-12-31T12:30:19.358Z,18.02
2022-12-31T12:32:55.394Z,17.98
2022-12-31T12:35:29.923Z,17.93
2022-12-31T12:38:15.016Z,17.95
2022-12-31T12:40:53.848Z,17.96
2022-12-31T12:43:27.163Z,18.00
2022-12-31T12:46:01.074Z,17.98
2022-12-31T12:48:42.546Z,17.92
2022-12-31T12:51:19.459Z,17.81
2022-12-31T12:54:18.593Z,17.69
2022-12-31T12:57:01.378Z,17.57
2022-12-31T12:59:47.394Z,17.47
2022-12-31T13:02:48.993Z,17.37
2022-12-31T13:05:28.218Z,17.20
2022-12-31T13:08:09.375Z,17.07
2022-12-31T13:10:58.083Z,16.93
2022-12-31T13:13:54.268Z,16.82
2022-12-31T13:16:59.894Z,16.74
2022-12-31T13:19:37.035Z,16.61
2022-12-31T13:22:27.168Z,16.53
2022-12-31T13:25:19.802Z,16.45
2022-12-31T13:27:50.502Z,16.37
2022-12-31T13:30:25.458Z,16.34
2022-12-31T13:32:58.520Z,16.32
2022-12-31T13:35:53.759Z,16.29
2022-12-31T13:38:31.932Z,16.29
2022-12-31T13:41:17.227Z,16.29
2022-12-31T13:43:58.471Z,16.28
2022-12-31T13:46:35.735Z,16.26
2022-12-31T13:49:10.674Z,16.25
2022-12-31T13:51:46.476Z,16.25
2022-12-31T13:54:42.614Z,16.22
2022-12-31T13:57:41.521Z,16.16
2022-12-31T14:00:19.792Z,16.10
2022-12-31T14:02:54.079Z,16.04
2022-12-31T14:05:37.805Z,15.98
2022-12-31T14:08:06.462Z,16.22
2022-12-31T14:10:42.670Z,17.32
2022-12-31T14:13:38.287Z,18.18
2022-12-31T14:16:18.643Z,17.81
2022-12-31T14:19:21.361Z,17.30
2022-12-31T14:22:03.381Z,16.86
2022-12-31T14:24:42.313Z,16.58
2022-12-31T14:27:36.985Z,16.37
2022-12-31T14:30:07.433Z,16.19
2022-12-31T14:33:06.454Z,16.06
2022-12-31T14:35:56.677Z,16.73
2022-12-31T14:38:51.077Z,17.93
2022-12-31T14:41:40.503Z,17.73
2022-12-31T14:44:27.850Z,17.16
2022-12-31T14:47:37.095Z,16.75
2022-12-31T14:50:27.361Z,16.41
2022-12-31T14:53:04.493Z,16.18
2022-12-31T14:55:37.326Z,16.31
2022-12-31T14:58:28.205Z,17.35
2022-12-31T15:00:59.696Z,18.14
2022-12-31T15:03:30.901Z,17.73
2022-12-31T15:06:13.829Z,17.18
2022-12-31T15:08:49.516Z,16.77
2022-12-31T15:11:23.822Z,16.47
2022-12-31T15:14:13.223Z,16.24
2022-12-31T15:16:44.945Z,16.43
2022-12-31T15:19:18.952Z,17.66
2022-12-31T15:22:10.263Z,18.55
2022-12-31T15:24:43.997Z,18.03
2022-12-31T15:27:38.635Z,17.41
2022-12-31T15:30:07.367Z,16.91
2022-12-31T15:32:37.344Z,16.60
2022-12-31T15:35:45.738Z,16.36
2022-12-31T15:38:13.458Z,16.11
2022-12-31T15:40:49.583Z,16.26
2022-12-31T15:43:31.400Z,17.50
2022-12-31T15:45:59.782Z,18.27
2022-12-31T15:48:40.766Z,17.88
2022-12-31T15:51:20.221Z,17.27
2022-12-31T15:53:53.081Z,16.83
2022-12-31T15:56:38.329Z,16.52
2022-12-31T15:59:12.150Z,16.26
2022-12-31T16:01:41.781Z,16.72
2022-12-31T16:04:27.893Z,17.94
2022-12-31T16:07:00.567Z,18.71
2022-12-31T16:09:34.238Z,18.14
2022-12-31T16:12:04.936Z,17.47
2022-12-31T16:14:36.927Z,17.00
2022-12-31T16:17:05.232Z,16.63
2022-12-31T16:19:42.725Z,16.36
2022-12-31T16:22:16.211Z,16.12
2022-12-31T16:25:10.767Z,15.95
2022-12-31T16:27:34.723Z,16.40
2022-12-31T16:30:07.178Z,17.68
2022-12-31T16:32:38.248Z,18.76
2022-12-31T16:35:28.110Z,19.15
2022-12-31T16:38:17.400Z,18.47
2022-12-31T16:41:06.604Z,17.73
2022-12-31T16:43:41.057Z,17.23
2022-12-31T16:46:20.161Z,16.88
2022-12-31T16:48:50.819Z,16.59
2022-12-31T16:51:21.831Z,16.35
2022-12-31T16:53:50.313Z,16.15
2022-12-31T16:56:38.405Z,15.98
2022-12-31T16:59:25.378Z,15.82
2022-12-31T17:01:56.183Z,16.07
2022-12-31T17:04:24.495Z,17.23
2022-12-31T17:06:52.421Z,18.26
2022-12-31T17:09:33.743Z,18.83
2022-12-31T17:12:52.666Z,18.28
2022-12-31T17:15:29.830Z,17.48
2022-12-31T17:18:01.541Z,17.06
2022-12-31T17:20:31.436Z,16.73
2022-12-31T17:23:01.402Z,16.45
2022-12-31T17:25:34.478Z,16.22
2022-12-31T17:28:05.395Z,16.01
2022-12-31T17:30:33.298Z,15.83
2022-12-31T17:33:24.061Z,15.90
2022-12-31T17:35:56.895Z,17.11
2022-12-31T17:38:24.576Z,18.04
2022-12-31T17:40:54.045Z,18.36
2022-12-31T17:43:23.239Z,17.80
2022-12-31T17:45:51.830Z,17.20
2022-12-31T17:48:23.262Z,16.75
2022-12-31T17:50:56.556Z,16.42
2022-12-31T17:53:24.921Z,16.13
2022-12-31T17:55:54.856Z,15.90
2022-12-31T17:58:29.850Z,15.94
2022-12-31T18:00:58.223Z,16.92
2022-12-31T18:03:26.484Z,17.85
2022-12-31T18:05:54.344Z,18.35
2022-12-31T18:08:22.079Z,17.87
2022-12-31T18:10:50.968Z,17.24
2022-12-31T18:13:26.247Z,16.75
2022-12-31T18:15:54.684Z,16.38
2022-12-31T18:18:25.933Z,16.11
2022-12-31T18:20:58.063Z,16.68
2022-12-31T18:23:31.738Z,17.84
2022-12-31T18:25:59.493Z,18.51
2022-12-31T18:28:27.353Z,18.05
2022-12-31T18:30:55.926Z,17.44
2022-12-31T18:33:25.709Z,16.97
2022-12-31T18:36:10.222Z,16.62
2022-12-31T18:38:39.552Z,16.32
2022-12-31T18:41:07.818Z,16.30
2022-12-31T18:43:35.551Z,17.28
2022-12-31T18:46:03.494Z,18.15
2022-12-31T18:48:31.655Z,18.12
2022-12-31T18:50:59.673Z,17.55
2022-12-31T18:53:27.558Z,17.06
2022-12-31T18:55:57.190Z,16.71
2022-12-31T18:58:25.234Z,16.44
2022-12-31T19:00:53.047Z,16.25
2022-12-31T19:03:23.135Z,16.29
2022-12-31T19:05:52.152Z,17.34
2022-12-31T19:08:22.380Z,18.39
2022-12-31T19:10:51.926Z,18.45
2022-12-31T19:13:20.670Z,17.84
2022-12-31T19:15:50.795Z,17.32
2022-12-31T19:18:19.344Z,16.94
2022-12-31T19:20:47.760Z,16.68
2022-12-31T19:23:18.198Z,16.48
2022-12-31T19:25:47.725Z,16.32
2022-12-31T19:28:20.081Z,16.43
2022-12-31T19:30:47.901Z,17.47
2022-12-31T19:33:16.364Z,18.15
2022-12-31T19:35:45.109Z,17.87
2022-12-31T19:38:22.189Z,17.41
2022-12-31T19:40:51.900Z,17.04
2022-12-31T19:43:21.639Z,16.78
2022-12-31T19:45:50.528Z,16.60
2022-12-31T19:48:20.607Z,16.46
2022-12-31T19:50:51.127Z,16.34
2022-12-31T19:53:27.516Z,16.62
2022-12-31T19:55:55.317Z,17.86
2022-12-31T19:58:27.876Z,18.47
2022-12-31T20:01:02.425Z,17.98
2022-12-31T20:03:32.832Z,17.51
2022-12-31T20:06:03.380Z,17.17
2022-12-31T20:08:31.741Z,16.93
2022-12-31T20:11:11.194Z,16.73
2022-12-31T20:13:40.337Z,16.56
2022-12-31T20:16:13.697Z,16.43
2022-12-31T20:18:42.393Z,16.32
2022-12-31T20:21:12.424Z,16.90
2022-12-31T20:23:40.498Z,17.99
2022-12-31T20:26:08.886Z,18.06
2022-12-31T20:28:37.477Z,17.60
2022-12-31T20:31:10.811Z,17.23
2022-12-31T20:33:38.998Z,16.95
2022-12-31T20:36:09.182Z,16.74
2022-12-31T20:38:37.225Z,16.57
2022-12-31T20:41:12.798Z,16.44
2022-12-31T20:43:41.280Z,16.32
2022-12-31T20:46:16.087Z,16.22
2022-12-31T20:48:45.222Z,16.14
2022-12-31T20:51:14.745Z,16.30
2022-12-31T20:53:50.616Z,17.56
2022-12-31T20:56:18.697Z,18.68
2022-12-31T20:58:47.100Z,18.36
2022-12-31T21:01:16.844Z,17.76
2022-12-31T21:06:35.433Z,16.99
2022-12-31T21:09:05.715Z,16.75
2022-12-31T21:11:52.990Z,16.56
2022-12-31T21:14:21.413Z,16.40
2022-12-31T21:16:49.203Z,16.27
2022-12-31T21:19:17.150Z,16.17
2022-12-31T21:21:44.988Z,16.08
2022-12-31T21:24:12.709Z,16.05
2022-12-31T21:26:40.454Z,16.87
2022-12-31T21:29:08.391Z,17.97
2022-12-31T21:31:36.481Z,17.90
2022-12-31T21:34:04.335Z,17.45
2022-12-31T21:36:32.039Z,17.06
2022-12-31T21:38:59.820Z,16.77
2022-12-31T21:41:46.282Z,16.56
2022-12-31T21:44:14.129Z,16.36
2022-12-31T21:47:00.747Z,16.23
2022-12-31T21:49:29.494Z,16.10
2022-12-31T21:52:16.024Z,16.01
2022-12-31T21:55:02.658Z,15.92
2022-12-31T21:57:34.296Z,15.87
2022-12-31T22:00:42.514Z,15.80
2022-12-31T22:03:24.314Z,15.76
2022-12-31T22:06:00.763Z,15.86
2022-12-31T22:08:30.227Z,17.05
2022-12-31T22:10:58.087Z,18.03
2022-12-31T22:13:26.002Z,17.79
2022-12-31T22:16:00.406Z,17.30
2022-12-31T22:18:34.458Z,16.92
2022-12-31T22:21:05.880Z,16.67
2022-12-31T22:23:35.171Z,16.47
2022-12-31T22:26:04.489Z,16.31
2022-12-31T22:28:40.422Z,16.19
2022-12-31T22:31:19.930Z,16.09
2022-12-31T22:33:47.817Z,15.99
2022-12-31T22:36:18.715Z,15.93
2022-12-31T22:38:47.103Z,15.89
2022-12-31T22:41:18.246Z,15.84
2022-12-31T22:43:48.668Z,15.80
2022-12-31T22:46:18.989Z,15.78
2022-12-31T22:48:47.514Z,15.76
2022-12-31T22:51:15.977Z,15.75
2022-12-31T22:53:43.943Z,15.75
2022-12-31T22:56:13.883Z,15.74
2022-12-31T22:58:41.795Z,15.73
2022-12-31T23:01:22.012Z,15.72
2022-12-31T23:03:51.808Z,15.73
2022-12-31T23:06:22.072Z,15.72
2022-12-31T23:09:09.528Z,15.74
2022-12-31T23:11:38.643Z,15.78
2022-12-31T23:14:26.260Z,15.79
2022-12-31T23:17:30.854Z,15.80
2022-12-31T23:20:19.152Z,15.81
2022-12-31T23:23:06.123Z,15.80
2022-12-31T23:25:39.623Z,15.80
2022-12-31T23:28:11.451Z,15.79
2022-12-31T23:30:40.643Z,15.80
2022-12-31T23:33:15.621Z,15.78
2022-12-31T23:35:45.380Z,15.77
2022-12-31T23:38:14.760Z,15.76
2022-12-31T23:40:43.330Z,15.74
2022-12-31T23:43:19.852Z,15.74
2022-12-31T23:45:50.019Z,15.72
2022-12-31T23:48:17.818Z,15.73
2022-12-31T23:50:52.987Z,15.73
2022-12-31T23:53:23.123Z,15.73
2022-12-31T23:55:52.141Z,15.72
2022-12-31T23:58:21.109Z,15.73
